createdAt,value
2018-09-21T00:00:47.351Z,20.20
2018-09-21T00:05:57.233Z,20.20
2018-09-21T00:11:07.184Z,20.20
2018-09-21T00:16:17.163Z,20.10
2018-09-21T00:21:27.228Z,20.10
2018-09-21T00:26:37.126Z,20.10
2018-09-21T00:31:47.132Z,20.10
2018-09-21T00:36:57.095Z,20.10
2018-09-21T00:42:07.092Z,20.10
2018-09-21T00:47:17.108Z,20.30
2018-09-21T00:52:27.140Z,20.30
2018-09-21T00:57:37.043Z,20.30
2018-09-21T01:02:47.140Z,20.40
2018-09-21T01:07:57.053Z,20.30
2018-09-21T01:13:07.172Z,20.20
2018-09-21T01:18:17.199Z,20.30
2018-09-21T01:23:27.208Z,20.30
2018-09-21T01:28:37.268Z,20.30
2018-09-21T01:33:47.604Z,20.40
2018-09-21T01:38:57.604Z,20.30
2018-09-21T01:44:08.504Z,20.30
2018-09-21T01:49:18.480Z,20.20
2018-09-21T01:54:28.565Z,20.20
2018-09-21T01:59:38.515Z,20.20
2018-09-21T02:04:48.563Z,20.20
2018-09-21T02:09:58.635Z,20.20
2018-09-21T02:15:08.496Z,20.30
2018-09-21T02:20:18.547Z,20.30
2018-09-21T02:25:28.389Z,20.30
2018-09-21T02:30:38.376Z,20.40
2018-09-21T02:35:48.444Z,20.40
2018-09-21T02:40:58.483Z,20.40
2018-09-21T02:46:08.497Z,20.50
2018-09-21T02:51:18.540Z,20.60
2018-09-21T02:56:28.552Z,20.50
2018-09-21T03:01:38.602Z,20.50
2018-09-21T03:06:48.599Z,20.60
2018-09-21T03:11:58.674Z,20.80
2018-09-21T03:17:08.791Z,20.90
2018-09-21T03:22:18.813Z,20.80
2018-09-21T03:27:28.828Z,20.80
2018-09-21T03:32:38.676Z,20.90
2018-09-21T03:37:48.594Z,20.80
2018-09-21T03:42:58.624Z,20.80
2018-09-21T03:48:08.832Z,20.90
2018-09-21T03:53:18.926Z,20.90
2018-09-21T03:58:28.979Z,20.90
2018-09-21T04:03:39.088Z,20.90
2018-09-21T04:08:49.011Z,20.90
2018-09-21T04:13:58.865Z,20.90
2018-09-21T04:19:08.885Z,20.90
2018-09-21T04:24:18.880Z,21.00
2018-09-21T04:29:29.180Z,20.90
2018-09-21T04:34:39.069Z,21.00
2018-09-21T04:39:49.464Z,21.00
2018-09-21T04:44:59.443Z,21.10
2018-09-21T04:50:09.362Z,21.20
2018-09-21T04:55:19.296Z,21.30
2018-09-21T05:00:29.347Z,21.30
2018-09-21T05:05:39.369Z,21.20
2018-09-21T05:10:49.370Z,21.20
2018-09-21T05:15:59.260Z,21.20
2018-09-21T05:21:09.151Z,21.40
2018-09-21T05:26:19.087Z,21.40
2018-09-21T05:31:29.124Z,21.40
2018-09-21T05:36:39.583Z,21.50
2018-09-21T05:41:49.576Z,21.50
2018-09-21T05:46:59.600Z,21.50
2018-09-21T05:52:10.287Z,21.50
2018-09-21T05:57:20.248Z,21.50
2018-09-21T06:02:30.327Z,21.50
2018-09-21T06:07:40.201Z,21.50
2018-09-21T06:12:50.067Z,21.60
2018-09-21T06:18:00.103Z,21.60
2018-09-21T06:23:10.091Z,21.70
2018-09-21T06:28:20.137Z,21.70
2018-09-21T06:33:30.140Z,21.80
2018-09-21T06:38:40.171Z,21.80
2018-09-21T06:43:51.039Z,21.90
2018-09-21T06:49:00.992Z,21.90
2018-09-21T06:54:10.909Z,21.80
2018-09-21T06:59:20.936Z,21.90
2018-09-21T07:04:31.297Z,21.90
2018-09-21T07:09:41.319Z,21.90
2018-09-21T07:14:51.380Z,22.00
2018-09-21T07:20:01.515Z,22.00
2018-09-21T07:25:11.568Z,22.00
2018-09-21T07:30:21.834Z,21.80
2018-09-21T07:35:31.913Z,21.80
2018-09-21T07:40:41.937Z,21.70
2018-09-21T07:45:51.924Z,21.60
2018-09-21T07:51:02.000Z,21.40
2018-09-21T07:56:12.027Z,21.20
2018-09-21T08:01:21.987Z,21.10
2018-09-21T08:06:32.077Z,21.20
2018-09-21T08:11:42.028Z,21.30
2018-09-21T08:16:52.008Z,21.30
2018-09-21T08:22:02.480Z,21.20
2018-09-21T08:27:14.773Z,21.20
2018-09-21T08:32:24.825Z,20.90
2018-09-21T08:37:35.011Z,20.30
2018-09-21T08:42:44.927Z,18.20
2018-09-21T08:47:55.070Z,15.90
2018-09-21T08:53:04.953Z,15.00
2018-09-21T08:58:14.924Z,14.70
2018-09-21T09:03:25.027Z,14.80
2018-09-21T09:08:34.892Z,14.70
2018-09-21T09:13:44.893Z,15.10
2018-09-21T09:18:54.928Z,15.90
2018-09-21T09:24:04.948Z,15.30
2018-09-21T09:29:14.988Z,14.70
2018-09-21T09:34:25.023Z,14.80
2018-09-21T09:39:35.048Z,15.30
2018-09-21T09:44:45.057Z,15.60
2018-09-21T09:49:55.347Z,15.40
2018-09-21T09:55:05.412Z,15.40
2018-09-21T10:00:19.756Z,15.50
2018-09-21T10:05:29.848Z,15.60
2018-09-21T10:10:40.720Z,15.80
2018-09-21T10:15:50.760Z,15.80
2018-09-21T10:21:00.668Z,16.30
2018-09-21T10:26:10.792Z,16.20
2018-09-21T10:31:20.872Z,16.70
2018-09-21T10:36:30.818Z,16.40
2018-09-21T10:41:40.778Z,16.10
2018-09-21T10:46:50.869Z,17.00
2018-09-21T10:52:00.755Z,16.70
2018-09-21T10:57:10.828Z,16.80
2018-09-21T11:02:20.929Z,16.90
2018-09-21T11:07:30.935Z,17.30
2018-09-21T11:12:40.956Z,17.10
2018-09-21T11:17:50.983Z,17.00
2018-09-21T11:23:00.991Z,16.70
2018-09-21T11:28:11.017Z,17.60
2018-09-21T11:33:20.931Z,17.50
2018-09-21T11:38:31.105Z,18.00
2018-09-21T11:43:40.960Z,18.90
2018-09-21T11:48:51.021Z,18.70
2018-09-21T11:54:01.126Z,19.20
2018-09-21T11:59:11.035Z,18.40
2018-09-21T12:04:21.148Z,19.20
2018-09-21T12:09:31.151Z,19.40
2018-09-21T12:14:41.171Z,19.20
2018-09-21T12:19:51.187Z,18.90
2018-09-21T12:25:02.055Z,19.10
2018-09-21T12:30:12.104Z,19.00
2018-09-21T12:35:22.036Z,19.00
2018-09-21T12:40:32.092Z,18.90
2018-09-21T12:45:41.967Z,19.30
2018-09-21T12:50:51.963Z,19.10
2018-09-21T12:56:01.992Z,19.10
2018-09-21T13:01:11.885Z,19.10
2018-09-21T13:06:21.995Z,20.30
2018-09-21T13:11:31.968Z,20.60
2018-09-21T13:16:41.888Z,20.10
2018-09-21T13:21:51.970Z,20.00
2018-09-21T13:27:01.951Z,20.10
2018-09-21T13:32:11.850Z,20.20
2018-09-21T13:37:21.768Z,20.30
2018-09-21T13:42:31.808Z,20.20
2018-09-21T13:47:41.825Z,19.90
2018-09-21T13:52:52.000Z,20.50
2018-09-21T13:58:02.011Z,22.40
2018-09-21T14:03:12.032Z,23.70
2018-09-21T14:08:22.037Z,24.90
2018-09-21T14:13:31.950Z,23.60
2018-09-21T14:18:41.970Z,23.90
2018-09-21T14:23:52.018Z,22.90
2018-09-21T14:29:01.913Z,21.20
2018-09-21T14:34:11.786Z,20.10
2018-09-21T14:39:21.976Z,19.60
2018-09-21T14:44:32.119Z,19.80
2018-09-21T14:49:41.988Z,19.50
2018-09-21T14:54:52.071Z,19.30
2018-09-21T15:00:01.997Z,20.40
2018-09-21T15:05:12.078Z,21.20
2018-09-21T15:10:22.300Z,21.20
2018-09-21T15:15:32.166Z,21.90
2018-09-21T15:20:42.231Z,22.40
2018-09-21T15:25:52.286Z,21.80
2018-09-21T15:31:02.501Z,19.70
2018-09-21T15:36:12.451Z,19.30
2018-09-21T15:41:22.435Z,20.20
2018-09-21T15:46:32.344Z,20.20
2018-09-21T15:51:42.400Z,19.60
2018-09-21T15:56:52.425Z,19.40
2018-09-21T16:02:02.524Z,19.40
2018-09-21T16:07:12.637Z,18.90
2018-09-21T16:12:22.777Z,18.70
2018-09-21T16:17:32.780Z,18.50
2018-09-21T16:22:42.779Z,18.50
2018-09-21T16:27:52.775Z,18.30
2018-09-21T16:33:02.815Z,18.20
2018-09-21T16:38:12.736Z,18.20
2018-09-21T16:43:22.721Z,17.90
2018-09-21T16:48:32.996Z,17.80
2018-09-21T16:53:43.561Z,17.70
2018-09-21T16:58:53.621Z,17.60
2018-09-21T17:04:03.453Z,17.70
2018-09-21T17:09:13.554Z,17.20
2018-09-21T17:14:23.448Z,17.20
2018-09-21T17:19:33.351Z,17.20
2018-09-21T17:24:43.253Z,17.20
2018-09-21T17:29:53.288Z,16.90
2018-09-21T17:35:03.451Z,16.70
2018-09-21T17:40:13.572Z,16.60
2018-09-21T17:45:23.572Z,16.60
2018-09-21T17:50:33.612Z,16.50
2018-09-21T17:55:43.661Z,16.40
2018-09-21T18:00:53.777Z,16.30
2018-09-21T18:06:03.783Z,16.20
2018-09-21T18:11:13.725Z,16.50
2018-09-21T18:16:23.801Z,16.60
2018-09-21T18:21:33.656Z,16.50
2018-09-21T18:26:43.708Z,16.20
2018-09-21T18:31:53.660Z,16.30
2018-09-21T18:37:03.638Z,16.10
2018-09-21T18:42:13.778Z,16.00
2018-09-21T18:47:23.844Z,16.10
2018-09-21T18:52:33.903Z,15.60
2018-09-21T18:57:43.968Z,15.70
2018-09-21T19:02:53.865Z,15.70
2018-09-21T19:08:03.953Z,15.30
2018-09-21T19:13:13.980Z,15.30
2018-09-21T19:18:24.059Z,15.30
2018-09-21T19:23:34.257Z,15.00
2018-09-21T19:28:44.156Z,15.00
2018-09-21T19:33:54.227Z,15.00
2018-09-21T19:39:06.226Z,15.50
2018-09-21T19:44:16.116Z,15.50
2018-09-21T19:49:26.130Z,15.70
2018-09-21T19:54:36.227Z,15.60
2018-09-21T19:59:46.318Z,15.60
2018-09-21T20:04:56.473Z,15.50
2018-09-21T20:10:06.433Z,15.50
2018-09-21T20:15:16.431Z,15.50
2018-09-21T20:20:26.424Z,15.70
2018-09-21T20:25:36.492Z,15.70
2018-09-21T20:30:51.891Z,15.40
2018-09-21T20:36:01.764Z,15.50
2018-09-21T20:41:11.790Z,15.40
2018-09-21T20:46:21.784Z,15.40
2018-09-21T20:51:31.775Z,15.10
2018-09-21T20:56:41.934Z,14.90
2018-09-21T21:01:51.982Z,14.90
2018-09-21T21:07:01.860Z,14.80
2018-09-21T21:12:11.912Z,14.70
2018-09-21T21:17:22.018Z,14.90
2018-09-21T21:22:32.048Z,14.90
2018-09-21T21:27:42.100Z,14.70
2018-09-21T21:32:52.184Z,14.80
2018-09-21T21:38:02.407Z,14.80
2018-09-21T21:43:12.420Z,14.90
2018-09-21T21:48:22.487Z,14.60
2018-09-21T21:53:32.368Z,14.40
2018-09-21T21:58:42.393Z,14.40
2018-09-21T22:03:52.440Z,14.20
2018-09-21T22:09:02.361Z,14.30
2018-09-21T22:14:12.740Z,14.30
2018-09-21T22:19:22.749Z,14.30
2018-09-21T22:24:32.811Z,14.10
2018-09-21T22:29:42.716Z,14.20
2018-09-21T22:34:52.727Z,14.40
2018-09-21T22:40:02.808Z,14.60
2018-09-21T22:45:12.836Z,14.60
2018-09-21T22:50:22.727Z,14.50
2018-09-21T22:55:32.732Z,14.30
2018-09-21T23:00:43.107Z,14.40
2018-09-21T23:05:53.143Z,14.30
2018-09-21T23:11:03.330Z,14.40
2018-09-21T23:16:13.503Z,14.40
2018-09-21T23:21:23.580Z,14.50
2018-09-21T23:26:33.627Z,14.40
2018-09-21T23:31:43.785Z,14.50
2018-09-21T23:36:53.835Z,14.60
2018-09-21T23:42:03.836Z,14.30
2018-09-21T23:47:13.860Z,14.20
2018-09-21T23:52:23.868Z,14.60
2018-09-21T23:57:33.916Z,14.40
